Time;durP1;ratioP1;P1;durP2;ratioP2;P2;SDS_P1;SDS_P2;PMS_P1;PMS_P2;Temp;Humidity;BMP_temperature;BMP_pressure;BME280_temperature;BME280_humidity;BME280_pressure;Samples;Min_cycle;Max_cycle;Signal;HPM_P1;HPM_P2
2023/04/07 00:00:20;;;;;;;28.33;12.38;;;7.50;99.90;;;;;;5060209;28;20021;-71
2023/04/07 00:02:47;;;;;;;31.35;13.40;;;7.50;99.90;;;;;;5058486;28;20060;-69
2023/04/07 00:05:13;;;;;;;30.85;13.30;;;7.30;99.90;;;;;;5058340;28;20025;-69
2023/04/07 00:07:39;;;;;;;32.83;14.23;;;7.30;99.90;;;;;;5058482;28;20120;-69
2023/04/07 00:10:05;;;;;;;33.67;14.63;;;7.30;99.90;;;;;;5057904;28;20017;-68
2023/04/07 00:12:31;;;;;;;31.92;14.60;;;7.20;99.90;;;;;;5057841;28;20133;-68
2023/04/07 00:14:57;;;;;;;37.53;15.52;;;7.20;99.90;;;;;;5057944;28;20044;-68
2023/04/07 00:17:22;;;;;;;35.70;15.30;;;7.20;99.90;;;;;;5057932;28;20040;-69
2023/04/07 00:19:48;;;;;;;37.53;15.93;;;7.10;99.90;;;;;;5058609;28;20115;-69
2023/04/07 00:22:13;;;;;;;40.92;15.70;;;7.00;99.90;;;;;;5057693;28;20112;-69
2023/04/07 00:24:39;;;;;;;42.33;17.20;;;7.00;99.90;;;;;;5058050;28;20147;-69
2023/04/07 00:27:04;;;;;;;37.47;17.00;;;7.00;99.90;;;;;;5057758;28;20025;-69
2023/04/07 00:29:30;;;;;;;39.33;15.63;;;6.90;99.90;;;;;;5057618;28;20135;-69
2023/04/07 00:31:55;;;;;;;38.70;17.40;;;6.90;99.90;;;;;;5058215;28;20023;-69
2023/04/07 00:34:21;;;;;;;43.38;17.83;;;7.00;99.90;;;;;;5057845;28;20071;-69
2023/04/07 00:36:51;;;;;;;47.33;18.98;;;6.80;99.90;;;;;;5058019;28;20028;-69
2023/04/07 00:39:20;;;;;;;42.80;17.55;;;6.80;99.90;;;;;;5057987;28;20021;-69
2023/04/07 00:41:46;;;;;;;48.88;19.35;;;6.80;99.90;;;;;;5057898;28;20063;-69
2023/04/07 00:44:12;;;;;;;44.90;18.42;;;6.70;99.90;;;;;;5058534;28;20029;-69
2023/04/07 00:46:38;;;;;;;44.03;18.17;;;6.70;99.90;;;;;;5057796;28;20059;-69
2023/04/07 00:49:05;;;;;;;44.88;18.73;;;6.70;99.90;;;;;;5057351;28;20032;-69
2023/04/07 00:51:31;;;;;;;50.58;18.98;;;6.70;99.90;;;;;;5057614;28;20017;-68
2023/04/07 00:53:56;;;;;;;45.25;18.05;;;6.70;99.90;;;;;;5057002;28;20167;-68
2023/04/07 00:56:22;;;;;;;51.80;19.75;;;6.70;99.90;;;;;;5057233;28;20078;-68
2023/04/07 00:58:47;;;;;;;50.35;19.08;;;6.70;99.90;;;;;;5057753;28;20028;-68
2023/04/07 01:01:21;;;;;;;44.72;18.95;;;6.80;99.90;;;;;;5057354;28;20128;-68
2023/04/07 01:04:12;;;;;;;47.30;17.92;;;6.80;99.90;;;;;;5057132;28;20021;-68
2023/04/07 01:06:43;;;;;;;49.40;19.77;;;6.80;99.90;;;;;;5056631;28;20035;-68
2023/04/07 01:09:24;;;;;;;48.80;19.63;;;6.90;99.90;;;;;;5057447;28;20025;-68
2023/04/07 01:11:56;;;;;;;52.80;18.80;;;6.90;99.90;;;;;;5057550;28;20112;-68
2023/04/07 01:14:23;;;;;;;50.47;19.17;;;6.90;99.90;;;;;;5057247;28;20317;-68
2023/04/07 01:16:50;;;;;;;45.60;17.50;;;7.00;99.90;;;;;;5056766;28;20025;-68
2023/04/07 01:19:31;;;;;;;54.38;18.33;;;6.90;99.90;;;;;;5057544;28;20036;-68
2023/04/07 01:21:57;;;;;;;42.22;17.17;;;7.00;99.90;;;;;;5056714;28;20112;-68
2023/04/07 01:24:44;;;;;;;54.65;19.17;;;7.00;99.90;;;;;;5056541;28;20025;-68
2023/04/07 01:27:30;;;;;;;43.22;17.60;;;7.00;99.90;;;;;;5057368;28;20032;-68
2023/04/07 01:29:58;;;;;;;72.40;21.63;;;6.80;99.90;;;;;;5056624;28;20281;-68
2023/04/07 01:32:25;;;;;;;45.33;19.80;;;6.90;99.90;;;;;;5056473;28;20024;-68
2023/04/07 01:34:52;;;;;;;50.33;18.73;;;7.00;99.90;;;;;;5057515;28;20028;-68
2023/04/07 01:37:19;;;;;;;38.25;16.13;;;7.00;99.90;;;;;;5056025;28;20033;-68
2023/04/07 01:39:45;;;;;;;40.70;17.83;;;6.90;99.90;;;;;;5057048;28;20035;-68
2023/04/07 01:42:12;;;;;;;45.42;18.48;;;6.80;99.90;;;;;;5056305;28;20111;-68
2023/04/07 01:44:37;;;;;;;45.72;19.17;;;6.80;99.90;;;;;;5057946;28;20033;-68
2023/04/07 01:47:04;;;;;;;42.47;17.95;;;6.80;99.90;;;;;;5056711;28;20108;-68
2023/04/07 01:49:31;;;;;;;54.80;18.65;;;6.80;99.90;;;;;;5056972;28;20020;-68
2023/04/07 01:51:57;;;;;;;52.30;19.67;;;6.80;99.90;;;;;;5056117;28;20047;-68
2023/04/07 01:54:22;;;;;;;55.05;20.63;;;6.80;99.90;;;;;;5056197;28;20032;-68
2023/04/07 01:56:48;;;;;;;62.42;21.30;;;6.70;99.90;;;;;;5056043;28;20025;-68
2023/04/07 01:59:14;;;;;;;54.38;19.58;;;6.80;99.90;;;;;;5055952;28;20106;-68
2023/04/07 02:01:39;;;;;;;55.72;19.63;;;6.70;99.90;;;;;;5056299;28;20021;-68
2023/04/07 02:04:14;;;;;;;76.97;23.42;;;6.70;99.90;;;;;;5056025;28;20025;-68
2023/04/07 02:07:14;;;;;;;69.13;22.95;;;6.80;99.90;;;;;;5055845;28;20017;-68
2023/04/07 02:09:41;;;;;;;44.28;17.33;;;6.80;99.90;;;;;;5052340;28;20040;-68
2023/04/07 02:12:10;;;;;;;47.25;18.50;;;6.80;99.90;;;;;;5056243;28;20025;-68
2023/04/07 02:14:37;;;;;;;47.70;18.48;;;6.80;99.90;;;;;;5055887;28;20017;-68
2023/04/07 02:17:04;;;;;;;54.30;19.00;;;6.80;99.90;;;;;;5060057;28;20107;-68
2023/04/07 02:19:30;;;;;;;52.60;18.20;;;6.90;99.90;;;;;;5061227;28;20071;-68
2023/04/07 02:21:55;;;;;;;55.17;18.35;;;6.90;99.90;;;;;;5061043;28;20024;-68
2023/04/07 02:24:21;;;;;;;51.03;18.30;;;6.90;99.90;;;;;;5060764;28;20146;-68
2023/04/07 02:26:47;;;;;;;40.88;17.20;;;6.90;99.90;;;;;;5060634;28;20036;-68
2023/04/07 02:29:13;;;;;;;40.30;15.52;;;6.80;99.90;;;;;;5060477;28;20021;-68
2023/04/07 02:31:38;;;;;;;48.45;15.98;;;6.80;99.90;;;;;;5060025;28;20024;-68
2023/04/07 02:34:04;;;;;;;43.85;15.30;;;6.80;99.90;;;;;;5060034;28;20021;-68
2023/04/07 02:36:30;;;;;;;39.88;16.20;;;6.80;99.90;;;;;;5059705;28;20029;-68
2023/04/07 02:38:55;;;;;;;39.78;16.25;;;6.80;99.90;;;;;;5060005;28;20041;-69
2023/04/07 02:41:21;;;;;;;46.78;16.55;;;6.70;99.90;;;;;;5059494;28;20025;-69
2023/04/07 02:43:46;;;;;;;49.78;17.05;;;6.60;99.90;;;;;;5060292;28;20028;-69
2023/04/07 02:46:12;;;;;;;40.10;16.70;;;6.60;99.90;;;;;;5059609;28;20025;-69
2023/04/07 02:48:37;;;;;;;41.42;15.73;;;6.70;99.90;;;;;;5060294;28;20029;-69
2023/04/07 02:51:03;;;;;;;39.63;15.90;;;6.60;99.90;;;;;;5059646;28;20071;-69
2023/04/07 02:53:29;;;;;;;31.90;15.32;;;6.60;99.90;;;;;;5059277;28;20028;-69
2023/04/07 02:55:55;;;;;;;47.13;16.08;;;6.60;99.90;;;;;;5059211;28;20053;-69
2023/04/07 02:58:20;;;;;;;36.33;15.35;;;6.50;99.90;;;;;;5059486;28;20115;-69
2023/04/07 03:00:47;;;;;;;44.80;16.52;;;6.50;99.90;;;;;;5059232;28;20059;-69
2023/04/07 03:03:13;;;;;;;45.22;16.23;;;6.60;99.90;;;;;;5059463;28;20032;-69
2023/04/07 03:05:39;;;;;;;57.85;19.10;;;6.60;99.90;;;;;;5059542;28;20029;-69
2023/04/07 03:08:04;;;;;;;36.92;15.02;;;6.60;99.90;;;;;;5059145;28;20025;-69
2023/04/07 03:10:30;;;;;;;35.80;15.18;;;6.60;99.90;;;;;;5059302;28;20017;-69
2023/04/07 03:12:56;;;;;;;45.03;17.13;;;6.50;99.90;;;;;;5058887;28;20032;-69
2023/04/07 03:15:21;;;;;;;41.95;15.77;;;6.60;99.90;;;;;;5058914;28;20017;-69
2023/04/07 03:17:47;;;;;;;41.30;15.18;;;6.50;99.90;;;;;;5059483;28;20029;-69
2023/04/07 03:20:13;;;;;;;42.72;15.88;;;6.50;99.90;;;;;;5058781;28;20032;-69
2023/04/07 03:22:38;;;;;;;52.30;17.25;;;6.50;99.90;;;;;;5058852;28;20063;-69
2023/04/07 03:25:04;;;;;;;42.80;16.30;;;6.60;99.90;;;;;;5059904;28;20029;-69
2023/04/07 03:27:30;;;;;;;35.58;14.40;;;6.50;99.90;;;;;;5057561;28;20051;-68
2023/04/07 03:29:56;;;;;;;35.58;15.60;;;6.50;99.90;;;;;;5058674;28;20016;-68
2023/04/07 03:32:21;;;;;;;34.60;13.73;;;6.50;99.90;;;;;;5058601;28;20032;-68
2023/04/07 03:34:47;;;;;;;47.15;16.17;;;6.50;99.90;;;;;;5059405;28;20017;-69
2023/04/07 03:37:12;;;;;;;41.50;16.35;;;6.40;99.90;;;;;;5059272;28;20081;-69
2023/04/07 03:39:39;;;;;;;43.78;15.48;;;6.50;99.90;;;;;;5058449;28;20025;-69
2023/04/07 03:42:05;;;;;;;34.78;14.05;;;6.50;99.90;;;;;;5058558;28;20113;-69
2023/04/07 03:44:31;;;;;;;44.08;16.27;;;6.50;99.90;;;;;;5059335;28;20059;-69
2023/04/07 03:46:57;;;;;;;53.28;17.05;;;6.60;99.90;;;;;;5058534;28;20021;-69
2023/04/07 03:49:23;;;;;;;46.20;16.63;;;6.60;99.90;;;;;;5059342;28;20056;-69
2023/04/07 03:51:48;;;;;;;37.38;14.18;;;6.60;99.90;;;;;;5059254;28;20071;-69
2023/04/07 03:54:14;;;;;;;35.58;13.90;;;6.60;99.90;;;;;;5061399;28;20024;-69
2023/04/07 03:56:40;;;;;;;41.17;14.98;;;6.50;99.90;;;;;;5058423;28;20021;-69
2023/04/07 03:59:05;;;;;;;32.67;13.75;;;6.60;99.90;;;;;;5058309;28;20021;-69
2023/04/07 04:01:31;;;;;;;39.42;13.70;;;6.50;99.90;;;;;;5059118;28;20116;-69
2023/04/07 04:03:56;;;;;;;33.28;13.23;;;6.40;99.90;;;;;;5059387;28;20028;-69
2023/04/07 04:06:22;;;;;;;39.97;13.88;;;6.40;99.90;;;;;;5058185;28;20017;-69
2023/04/07 04:08:48;;;;;;;31.85;13.52;;;6.40;99.90;;;;;;5058081;28;20025;-69
2023/04/07 04:11:13;;;;;;;50.75;15.25;;;6.40;99.90;;;;;;5058489;28;20067;-69
2023/04/07 04:13:39;;;;;;;43.03;14.63;;;6.50;99.90;;;;;;5058079;28;20067;-69
2023/04/07 04:16:05;;;;;;;42.17;14.48;;;6.50;99.90;;;;;;5058883;28;20013;-69
2023/04/07 04:18:30;;;;;;;34.45;13.82;;;6.50;99.90;;;;;;5058473;28;20033;-69
2023/04/07 04:20:56;;;;;;;39.40;13.88;;;6.50;99.90;;;;;;5058050;28;20139;-69
2023/04/07 04:23:21;;;;;;;41.97;15.27;;;6.50;99.90;;;;;;5057890;28;20024;-69
2023/04/07 04:25:47;;;;;;;37.92;14.20;;;6.60;99.90;;;;;;5057976;28;20024;-69
2023/04/07 04:28:13;;;;;;;38.92;13.55;;;6.60;99.90;;;;;;5058011;28;20025;-69
2023/04/07 04:30:38;;;;;;;43.95;13.38;;;6.60;99.90;;;;;;5058130;28;20024;-71
2023/04/07 04:33:04;;;;;;;31.27;12.75;;;6.60;99.90;;;;;;5057389;28;20107;-72
2023/04/07 04:35:29;;;;;;;33.00;13.05;;;6.50;99.90;;;;;;5057444;28;20116;-72
2023/04/07 04:37:55;;;;;;;36.90;12.57;;;6.50;99.90;;;;;;5057210;28;20040;-72
2023/04/07 04:40:21;;;;;;;30.83;12.02;;;6.50;99.90;;;;;;5057787;28;20163;-72
2023/04/07 04:42:46;;;;;;;27.33;11.27;;;6.50;99.90;;;;;;5058107;28;20100;-72
2023/04/07 04:45:12;;;;;;;28.58;11.82;;;6.50;99.90;;;;;;5057533;28;20080;-72
2023/04/07 04:47:38;;;;;;;31.83;11.63;;;6.50;99.90;;;;;;5057734;28;20087;-72
2023/04/07 04:50:05;;;;;;;29.95;11.50;;;6.50;99.90;;;;;;5058233;28;20063;-72
2023/04/07 04:52:30;;;;;;;30.25;10.75;;;6.50;99.90;;;;;;5057810;28;20025;-72
2023/04/07 04:54:56;;;;;;;30.73;11.80;;;6.40;99.90;;;;;;5057410;28;20120;-72
2023/04/07 04:57:21;;;;;;;33.10;12.07;;;6.40;99.90;;;;;;5058050;28;20025;-72
2023/04/07 04:59:47;;;;;;;31.20;11.30;;;6.40;99.90;;;;;;5057583;28;20033;-70
2023/04/07 05:02:13;;;;;;;31.23;12.00;;;6.40;99.90;;;;;;5056910;28;20027;-70
2023/04/07 05:04:38;;;;;;;28.30;11.18;;;6.40;99.90;;;;;;5056910;28;20025;-68
2023/04/07 05:07:04;;;;;;;29.20;11.32;;;6.40;99.90;;;;;;5057196;28;20087;-68
2023/04/07 05:09:30;;;;;;;32.38;12.52;;;6.40;99.90;;;;;;5057538;28;20025;-68
2023/04/07 05:11:56;;;;;;;37.28;12.75;;;6.40;99.90;;;;;;5057598;28;20048;-68
2023/04/07 05:14:22;;;;;;;31.73;13.07;;;6.40;99.90;;;;;;5057238;28;20051;-68
2023/04/07 05:16:48;;;;;;;29.55;12.00;;;6.50;99.90;;;;;;5057212;28;20021;-68
2023/04/07 05:19:14;;;;;;;33.58;13.20;;;6.40;99.90;;;;;;5057678;28;20029;-68
2023/04/07 05:21:39;;;;;;;25.77;11.18;;;6.40;99.90;;;;;;5056839;28;20063;-68
2023/04/07 05:24:05;;;;;;;27.52;10.30;;;6.40;99.90;;;;;;5057643;28;20048;-68
2023/04/07 05:26:30;;;;;;;32.28;12.23;;;6.40;99.90;;;;;;5056687;28;20028;-68
2023/04/07 05:28:56;;;;;;;30.70;12.43;;;6.30;99.90;;;;;;5056395;28;20032;-68
2023/04/07 05:31:22;;;;;;;33.45;12.40;;;6.30;99.90;;;;;;5057038;28;20024;-68
2023/04/07 05:33:47;;;;;;;31.77;12.73;;;6.30;99.90;;;;;;5056454;28;20032;-68
2023/04/07 05:36:13;;;;;;;32.00;11.75;;;6.40;99.90;;;;;;5056268;28;20021;-68
2023/04/07 05:38:38;;;;;;;25.30;10.80;;;6.40;99.90;;;;;;5056239;28;20123;-68
2023/04/07 05:41:04;;;;;;;28.23;11.02;;;6.40;99.90;;;;;;5056270;28;20025;-68
2023/04/07 05:43:29;;;;;;;29.38;11.32;;;6.40;99.90;;;;;;5056144;28;20021;-68
2023/04/07 05:45:56;;;;;;;37.78;13.07;;;6.40;99.90;;;;;;5056248;28;20028;-68
2023/04/07 05:48:22;;;;;;;29.30;11.15;;;6.40;99.90;;;;;;5056331;28;20078;-68
2023/04/07 05:50:47;;;;;;;29.48;11.95;;;6.50;99.90;;;;;;5055902;28;20025;-68
2023/04/07 05:53:14;;;;;;;30.67;11.77;;;6.50;99.90;;;;;;5056942;28;20071;-71
2023/04/07 05:55:42;;;;;;;30.02;11.75;;;6.50;99.90;;;;;;5055972;28;20070;-72
2023/04/07 05:58:08;;;;;;;27.63;10.65;;;6.50;99.90;;;;;;5056865;28;20028;-68
2023/04/07 06:00:33;;;;;;;27.40;11.63;;;6.50;99.90;;;;;;5056812;28;20047;-68
2023/04/07 06:03:00;;;;;;;29.27;10.98;;;6.50;99.90;;;;;;5057495;28;20021;-68
2023/04/07 06:05:26;;;;;;;27.33;10.65;;;6.50;99.90;;;;;;5056130;28;20029;-71
2023/04/07 06:07:51;;;;;;;36.45;12.52;;;6.50;99.90;;;;;;5055904;28;20025;-68
2023/04/07 06:10:17;;;;;;;35.47;12.85;;;6.50;99.90;;;;;;5055852;28;20028;-68
2023/04/07 06:12:42;;;;;;;34.53;12.70;;;6.50;99.90;;;;;;5056936;28;20033;-69
2023/04/07 06:15:08;;;;;;;29.33;11.85;;;6.50;99.90;;;;;;5055867;28;20112;-70
2023/04/07 06:17:34;;;;;;;37.88;12.00;;;6.50;99.90;;;;;;5056119;28;20021;-70
2023/04/07 06:19:59;;;;;;;30.48;11.52;;;6.50;99.90;;;;;;5055961;28;20028;-70
2023/04/07 06:22:25;;;;;;;27.13;10.77;;;6.50;99.90;;;;;;5056644;28;20083;-71
2023/04/07 06:24:51;;;;;;;29.70;11.27;;;6.50;99.90;;;;;;5055855;28;20029;-71
2023/04/07 06:27:17;;;;;;;40.63;12.90;;;6.50;99.90;;;;;;5056000;28;20025;-71
2023/04/07 06:29:43;;;;;;;24.95;11.02;;;6.50;99.90;;;;;;5056153;28;20111;-70
2023/04/07 06:32:08;;;;;;;30.95;12.55;;;6.60;99.90;;;;;;5056789;28;20071;-70
2023/04/07 06:34:34;;;;;;;40.47;12.77;;;6.60;99.90;;;;;;5055764;28;20021;-70
2023/04/07 06:37:00;;;;;;;29.05;10.70;;;6.60;99.90;;;;;;5055458;28;20116;-70
2023/04/07 06:39:26;;;;;;;22.10;9.95;;;6.60;99.90;;;;;;5056410;28;20017;-71
2023/04/07 06:41:51;;;;;;;29.10;10.52;;;6.60;99.90;;;;;;5055715;28;20021;-71
2023/04/07 06:44:17;;;;;;;32.85;11.65;;;6.60;99.90;;;;;;5056148;28;20028;-69
2023/04/07 06:46:46;;;;;;;29.95;11.10;;;6.60;99.90;;;;;;5055515;28;20025;-69
2023/04/07 06:49:11;;;;;;;33.47;12.48;;;6.60;99.90;;;;;;5055944;28;20100;-71
2023/04/07 06:51:37;;;;;;;43.40;13.27;;;6.60;99.90;;;;;;5055942;28;20063;-71
2023/04/07 06:54:04;;;;;;;35.78;11.80;;;6.60;99.90;;;;;;5055824;28;20028;-71
2023/04/07 06:56:29;;;;;;;30.23;10.52;;;6.60;99.90;;;;;;5055450;28;20029;-71
2023/04/07 06:58:55;;;;;;;22.48;10.07;;;6.60;99.90;;;;;;5055786;28;20033;-72
2023/04/07 07:01:21;;;;;;;26.92;10.68;;;6.50;99.90;;;;;;5055426;28;20032;-69
2023/04/07 07:03:46;;;;;;;24.45;10.48;;;6.50;99.90;;;;;;5058902;28;20017;-69
2023/04/07 07:06:12;;;;;;;22.98;9.43;;;6.60;99.90;;;;;;5059372;28;20028;-69
2023/04/07 07:08:37;;;;;;;23.30;9.52;;;6.50;99.90;;;;;;5058850;28;20021;-69
2023/04/07 07:11:03;;;;;;;25.60;10.32;;;6.50;99.90;;;;;;5059481;28;20017;-69
2023/04/07 07:13:29;;;;;;;21.08;8.85;;;6.60;99.90;;;;;;5059206;28;20036;-69
2023/04/07 07:15:54;;;;;;;39.00;11.85;;;6.60;99.90;;;;;;5059021;28;20017;-69
2023/04/07 07:18:20;;;;;;;30.60;11.65;;;6.70;99.90;;;;;;5059019;28;20025;-68
2023/04/07 07:20:46;;;;;;;32.60;9.98;;;6.70;99.90;;;;;;5059360;28;20025;-68
2023/04/07 07:23:11;;;;;;;41.47;12.20;;;6.70;99.90;;;;;;5059135;28;20032;-68
2023/04/07 07:25:37;;;;;;;33.28;10.88;;;6.80;99.90;;;;;;5058846;28;20036;-69
2023/04/07 07:28:03;;;;;;;32.90;10.65;;;6.80;99.90;;;;;;5058665;28;20036;-69
2023/04/07 07:30:28;;;;;;;29.50;9.68;;;6.80;99.90;;;;;;5059351;28;20017;-69
2023/04/07 07:32:55;;;;;;;28.83;9.88;;;6.90;99.90;;;;;;5059557;28;20021;-69
2023/04/07 07:35:21;;;;;;;28.25;10.77;;;6.80;99.90;;;;;;5058999;28;20021;-69
2023/04/07 07:37:47;;;;;;;30.63;11.23;;;6.80;99.90;;;;;;5058352;28;20032;-69
2023/04/07 07:40:13;;;;;;;23.35;9.48;;;6.80;99.90;;;;;;5058754;28;20025;-69
2023/04/07 07:42:39;;;;;;;28.42;10.43;;;6.80;99.90;;;;;;5059417;28;20036;-69
2023/04/07 07:45:05;;;;;;;31.33;10.88;;;6.80;99.90;;;;;;5058739;28;20021;-69
2023/04/07 07:47:31;;;;;;;26.25;9.48;;;6.90;99.90;;;;;;5058731;28;20048;-69
2023/04/07 07:49:56;;;;;;;22.55;10.10;;;6.90;99.90;;;;;;5059158;28;20021;-68
2023/04/07 07:52:22;;;;;;;31.45;9.48;;;6.90;99.90;;;;;;5058747;28;20033;-68
2023/04/07 07:54:49;;;;;;;26.15;9.60;;;6.90;99.90;;;;;;5058529;28;20077;-68
2023/04/07 07:57:14;;;;;;;31.77;10.35;;;6.90;99.90;;;;;;5058545;28;20028;-68
2023/04/07 07:59:40;;;;;;;20.70;9.25;;;7.00;99.90;;;;;;5058426;28;20024;-69
2023/04/07 08:02:07;;;;;;;26.45;10.77;;;7.00;99.90;;;;;;5058562;28;20124;-70
2023/04/07 08:04:32;;;;;;;24.30;9.95;;;7.00;99.90;;;;;;5058338;28;20029;-70
2023/04/07 08:06:58;;;;;;;24.42;9.15;;;7.10;99.90;;;;;;5058073;28;20027;-70
2023/04/07 08:09:24;;;;;;;34.05;11.38;;;7.10;99.90;;;;;;5058473;28;20119;-70
2023/04/07 08:11:50;;;;;;;29.55;9.93;;;7.10;99.90;;;;;;5058672;28;20107;-69
2023/04/07 08:14:16;;;;;;;25.48;9.20;;;7.20;99.90;;;;;;5059548;28;20025;-69
2023/04/07 08:16:41;;;;;;;24.33;10.25;;;7.10;99.90;;;;;;5058062;28;20106;-69
2023/04/07 08:19:07;;;;;;;18.63;8.15;;;7.10;99.90;;;;;;5058232;28;20029;-69
2023/04/07 08:21:32;;;;;;;22.40;9.10;;;7.00;99.90;;;;;;5058018;28;20055;-69
2023/04/07 08:23:59;;;;;;;20.77;8.82;;;7.10;99.90;;;;;;5058618;28;20124;-69
2023/04/07 08:26:25;;;;;;;22.55;9.02;;;7.20;99.90;;;;;;5058840;28;20033;-69
2023/04/07 08:28:51;;;;;;;22.58;7.50;;;7.20;99.90;;;;;;5057377;28;20075;-69
2023/04/07 08:31:17;;;;;;;18.67;7.80;;;7.30;99.90;;;;;;5057909;28;20111;-69
2023/04/07 08:33:42;;;;;;;16.95;7.43;;;7.20;99.90;;;;;;5058087;28;20119;-69
2023/04/07 08:36:08;;;;;;;13.68;6.95;;;7.10;99.90;;;;;;5057517;28;20028;-69
2023/04/07 08:38:33;;;;;;;12.02;6.05;;;7.10;99.90;;;;;;5057727;28;20045;-72
2023/04/07 08:41:12;;;;;;;10.65;6.03;;;7.10;99.90;;;;;;5057820;28;20028;-72
2023/04/07 08:43:40;;;;;;;10.15;5.10;;;7.10;99.90;;;;;;5058193;28;20033;-71
2023/04/07 08:46:09;;;;;;;10.85;5.95;;;7.10;99.90;;;;;;5057302;28;20032;-71
2023/04/07 08:48:37;;;;;;;11.55;6.03;;;7.20;99.90;;;;;;5057374;28;20033;-71
2023/04/07 08:51:08;;;;;;;10.63;5.75;;;7.20;99.90;;;;;;5058038;28;20021;-71
2023/04/07 08:53:48;;;;;;;9.60;5.82;;;7.20;99.90;;;;;;5058147;28;20075;-71
2023/04/07 08:56:15;;;;;;;11.40;5.45;;;7.20;99.90;;;;;;5057140;28;20025;-71
2023/04/07 08:58:41;;;;;;;9.30;5.40;;;7.20;99.90;;;;;;5057655;28;20107;-72
2023/04/07 09:01:08;;;;;;;10.13;5.60;;;7.10;99.90;;;;;;5057374;28;20070;-72
2023/04/07 09:03:33;;;;;;;9.35;5.43;;;7.20;99.90;;;;;;5057834;28;20033;-72
2023/04/07 09:06:00;;;;;;;11.20;5.60;;;7.20;99.90;;;;;;5057203;28;20031;-72
2023/04/07 09:08:25;;;;;;;8.43;5.13;;;7.20;99.90;;;;;;5057114;28;20097;-72
2023/04/07 09:10:52;;;;;;;10.23;5.38;;;7.20;99.90;;;;;;5057087;28;20052;-68
2023/04/07 09:13:17;;;;;;;13.90;6.50;;;7.30;99.90;;;;;;5057124;28;20028;-68
2023/04/07 09:15:43;;;;;;;11.43;6.35;;;7.30;99.90;;;;;;5057024;28;20032;-68
2023/04/07 09:18:09;;;;;;;9.65;5.45;;;7.40;99.90;;;;;;5056933;28;20032;-68
2023/04/07 09:20:53;;;;;;;10.73;5.70;;;7.40;99.90;;;;;;5056674;28;20025;-68
2023/04/07 09:23:30;;;;;;;9.35;5.25;;;7.40;99.90;;;;;;5057265;28;20025;-68
2023/04/07 09:25:58;;;;;;;10.60;5.32;;;7.40;99.90;;;;;;5055832;28;20036;-68
2023/04/07 09:28:24;;;;;;;12.68;5.97;;;7.40;99.90;;;;;;5057222;28;20028;-68
2023/04/07 09:30:54;;;;;;;13.82;6.30;;;7.40;99.90;;;;;;5056879;28;20021;-68
2023/04/07 09:33:27;;;;;;;15.40;6.32;;;7.50;99.90;;;;;;5056818;28;20025;-68
2023/04/07 09:35:53;;;;;;;13.25;6.30;;;7.60;99.90;;;;;;5057651;28;20020;-68
2023/04/07 09:38:19;;;;;;;10.63;5.55;;;7.70;99.90;;;;;;5057407;28;20039;-68
2023/04/07 09:40:44;;;;;;;11.20;6.25;;;7.60;99.90;;;;;;5057381;28;20020;-68
2023/04/07 09:43:19;;;;;;;11.48;5.32;;;7.60;99.90;;;;;;5056374;28;20021;-69
2023/04/07 09:45:45;;;;;;;10.00;6.00;;;7.60;99.90;;;;;;5056374;28;20075;-68
2023/04/07 09:48:19;;;;;;;10.02;5.75;;;7.70;99.90;;;;;;5056117;28;20082;-69
2023/04/07 09:50:48;;;;;;;11.48;4.93;;;7.70;99.90;;;;;;5056413;28;20028;-69
2023/04/07 09:53:14;;;;;;;11.30;5.47;;;7.70;99.90;;;;;;5056263;28;20075;-69
2023/04/07 09:55:41;;;;;;;10.90;5.30;;;7.70;99.90;;;;;;5056197;28;20025;-69
2023/04/07 09:58:07;;;;;;;12.48;5.43;;;7.80;99.90;;;;;;5056054;28;20061;-69
2023/04/07 10:00:34;;;;;;;9.60;5.47;;;7.80;99.90;;;;;;5057499;28;20028;-69
2023/04/07 10:03:00;;;;;;;12.90;6.30;;;7.70;99.90;;;;;;5056141;28;20117;-69
2023/04/07 10:05:26;;;;;;;18.23;7.60;;;7.80;99.90;;;;;;5056073;28;20117;-69
2023/04/07 10:07:53;;;;;;;13.73;6.85;;;7.70;99.90;;;;;;5055921;28;20025;-69
2023/04/07 10:10:19;;;;;;;16.52;6.57;;;7.70;99.90;;;;;;5057201;28;20013;-69
2023/04/07 10:12:45;;;;;;;14.45;6.53;;;7.70;99.90;;;;;;5055976;28;20028;-69
2023/04/07 10:15:14;;;;;;;21.58;7.13;;;7.60;99.90;;;;;;5058070;28;20172;-69
2023/04/07 10:17:48;;;;;;;14.68;5.85;;;7.50;99.90;;;;;;5056921;28;20021;-69
2023/04/07 10:20:17;;;;;;;21.67;7.78;;;7.50;99.90;;;;;;5056769;28;20028;-69
2023/04/07 10:22:45;;;;;;;15.70;7.22;;;7.50;99.90;;;;;;5056758;28;20021;-69
2023/04/07 10:25:13;;;;;;;19.55;8.30;;;7.60;99.90;;;;;;5056458;28;20065;-69
2023/04/07 10:27:49;;;;;;;25.52;8.65;;;7.50;99.90;;;;;;5056003;28;20025;-69
2023/04/07 10:30:36;;;;;;;16.65;7.15;;;7.60;99.90;;;;;;5055884;28;20021;-69
2023/04/07 10:33:02;;;;;;;20.55;8.07;;;7.50;99.90;;;;;;5055604;28;20029;-69
2023/04/07 10:35:28;;;;;;;21.30;8.13;;;7.50;99.90;;;;;;5056842;28;20071;-69
2023/04/07 10:38:15;;;;;;;13.20;6.53;;;7.50;99.90;;;;;;5059802;28;20086;-69
2023/04/07 10:40:42;;;;;;;23.52;8.88;;;7.50;99.90;;;;;;5059901;28;20021;-69
2023/04/07 10:43:11;;;;;;;20.58;8.88;;;7.50;99.90;;;;;;5060463;28;20029;-69
2023/04/07 10:45:47;;;;;;;22.67;8.23;;;7.50;99.90;;;;;;5060035;28;20024;-69
2023/04/07 10:48:13;;;;;;;21.08;9.30;;;7.50;99.90;;;;;;5059481;28;20029;-69
2023/04/07 10:50:39;;;;;;;27.67;9.52;;;7.50;99.90;;;;;;5059705;28;20021;-69
2023/04/07 10:53:11;;;;;;;17.10;7.57;;;7.50;99.90;;;;;;5059560;28;20074;-69
2023/04/07 10:55:37;;;;;;;22.13;9.15;;;7.60;99.90;;;;;;5059448;28;20107;-69
2023/04/07 10:58:16;;;;;;;26.40;10.02;;;7.60;99.90;;;;;;5059228;28;20119;-69
2023/04/07 11:01:05;;;;;;;18.52;8.82;;;7.60;99.90;;;;;;5059364;28;20060;-69
2023/04/07 11:03:33;;;;;;;23.13;8.50;;;7.60;99.90;;;;;;5060117;28;20070;-69
2023/04/07 11:06:07;;;;;;;21.20;8.40;;;7.70;99.90;;;;;;5059863;28;20021;-69
2023/04/07 11:08:36;;;;;;;21.10;8.35;;;7.60;99.90;;;;;;5060012;28;20025;-69
2023/04/07 11:11:07;;;;;;;15.27;7.50;;;7.60;99.90;;;;;;5059979;28;20018;-69
2023/04/07 11:13:43;;;;;;;31.73;10.30;;;7.60;99.90;;;;;;5059986;28;20028;-69
2023/04/07 11:16:10;;;;;;;23.35;9.70;;;7.70;99.90;;;;;;5059546;28;20033;-69
2023/04/07 11:18:36;;;;;;;22.23;9.05;;;7.80;99.90;;;;;;5060405;28;20055;-69
2023/04/07 11:21:04;;;;;;;24.60;8.65;;;7.80;99.90;;;;;;5058981;28;20021;-69
2023/04/07 11:23:37;;;;;;;29.20;9.88;;;7.90;99.90;;;;;;5059833;28;20021;-69
2023/04/07 11:26:03;;;;;;;25.52;9.70;;;7.90;99.90;;;;;;5059858;28;20033;-69
2023/04/07 11:28:30;;;;;;;20.20;8.38;;;7.90;99.90;;;;;;5059694;28;20053;-69
2023/04/07 11:30:57;;;;;;;18.05;7.97;;;8.00;99.90;;;;;;5058763;28;20143;-69
2023/04/07 11:33:31;;;;;;;19.40;7.72;;;7.90;99.90;;;;;;5058872;28;20017;-69
2023/04/07 11:36:01;;;;;;;14.82;7.68;;;7.90;99.90;;;;;;5059992;28;20021;-69
2023/04/07 11:38:33;;;;;;;19.35;8.95;;;7.90;99.90;;;;;;5058795;28;20039;-69
2023/04/07 11:41:10;;;;;;;13.82;7.50;;;7.90;99.90;;;;;;5059349;28;20115;-69
2023/04/07 11:43:36;;;;;;;16.90;6.80;;;7.70;99.90;;;;;;5058856;28;20071;-69
2023/04/07 11:46:10;;;;;;;22.98;7.50;;;7.70;99.90;;;;;;5058525;28;20025;-69
2023/04/07 11:48:37;;;;;;;22.40;8.65;;;7.70;99.90;;;;;;5057406;28;20032;-69
2023/04/07 11:51:04;;;;;;;18.42;8.10;;;7.80;99.90;;;;;;5058491;28;20107;-69
2023/04/07 11:53:36;;;;;;;22.70;8.82;;;7.80;99.90;;;;;;5059603;28;20056;-69
2023/04/07 11:56:17;;;;;;;16.70;8.23;;;7.80;99.90;;;;;;5058976;28;20047;-69
2023/04/07 11:58:50;;;;;;;16.40;7.57;;;7.90;99.90;;;;;;5059138;28;20078;-69
2023/04/07 12:01:16;;;;;;;21.63;7.93;;;7.90;99.90;;;;;;5059078;28;20021;-69
2023/04/07 12:04:02;;;;;;;28.85;9.23;;;7.90;99.90;;;;;;5059132;28;20029;-69
2023/04/07 12:06:37;;;;;;;19.23;7.93;;;8.00;99.90;;;;;;5058165;28;20047;-69
2023/04/07 12:09:04;;;;;;;29.13;10.18;;;8.00;99.90;;;;;;5058051;28;20115;-69
2023/04/07 12:11:30;;;;;;;22.80;9.38;;;8.00;99.90;;;;;;5058350;28;20081;-69
2023/04/07 12:13:56;;;;;;;29.00;9.35;;;8.10;99.90;;;;;;5058523;28;20021;-69
2023/04/07 12:16:23;;;;;;;31.15;10.18;;;8.10;99.90;;;;;;5057967;28;20028;-70
2023/04/07 12:18:50;;;;;;;27.73;8.55;;;8.20;99.90;;;;;;5058223;28;20029;-70
2023/04/07 12:21:16;;;;;;;12.68;6.75;;;8.20;99.90;;;;;;5059040;28;20104;-70
2023/04/07 12:23:41;;;;;;;22.88;9.13;;;8.10;99.90;;;;;;5057995;28;20075;-71
2023/04/07 12:26:08;;;;;;;19.73;7.88;;;8.20;99.90;;;;;;5060064;28;20029;-70
2023/04/07 12:28:33;;;;;;;21.80;9.65;;;8.30;99.90;;;;;;5058442;28;20059;-70
2023/04/07 12:30:59;;;;;;;18.30;8.05;;;8.40;99.90;;;;;;5057604;28;20021;-70
2023/04/07 12:33:24;;;;;;;22.80;9.13;;;8.40;99.90;;;;;;5058519;28;20025;-71
2023/04/07 12:35:50;;;;;;;18.35;8.02;;;8.50;99.90;;;;;;5057662;28;20029;-70
2023/04/07 12:38:16;;;;;;;26.73;9.45;;;8.40;99.90;;;;;;5058431;28;20029;-70
2023/04/07 12:40:42;;;;;;;22.27;8.88;;;8.50;99.90;;;;;;5058412;28;20074;-71